sensor_id;sensor_type;location;lat;lon;timestamp;P1;durP1;ratioP1;P2;durP2;ratioP2
17141;SDS011;32805;53.556;9.944;2023-08-24T00:00:40;11.13;;;7.70;;
17141;SDS011;32805;53.556;9.944;2023-08-24T00:03:08;11.27;;;8.55;;
17141;SDS011;32805;53.556;9.944;2023-08-24T00:05:36;12.30;;;8.07;;
17141;SDS011;32805;53.556;9.944;2023-08-24T00:08:05;13.38;;;8.02;;
17141;SDS011;32805;53.556;9.944;2023-08-24T00:10:32;9.90;;;7.32;;
17141;SDS011;32805;53.556;9.944;2023-08-24T00:13:00;12.63;;;7.97;;
17141;SDS011;32805;53.556;9.944;2023-08-24T00:15:29;10.15;;;8.38;;
17141;SDS011;32805;53.556;9.944;2023-08-24T00:17:56;15.25;;;7.65;;
17141;SDS011;32805;53.556;9.944;2023-08-24T00:20:24;11.25;;;8.05;;
17141;SDS011;32805;53.556;9.944;2023-08-24T00:22:53;10.40;;;6.55;;
17141;SDS011;32805;53.556;9.944;2023-08-24T00:25:20;12.40;;;7.32;;
17141;SDS011;32805;53.556;9.944;2023-08-24T00:27:48;11.95;;;8.20;;
17141;SDS011;32805;53.556;9.944;2023-08-24T00:30:16;11.00;;;7.60;;
17141;SDS011;32805;53.556;9.944;2023-08-24T00:32:45;12.27;;;7.47;;
17141;SDS011;32805;53.556;9.944;2023-08-24T00:35:13;14.18;;;8.45;;
17141;SDS011;32805;53.556;9.944;2023-08-24T00:37:40;11.27;;;7.32;;
17141;SDS011;32805;53.556;9.944;2023-08-24T00:40:08;11.07;;;7.30;;
17141;SDS011;32805;53.556;9.944;2023-08-24T00:42:37;13.30;;;7.38;;
17141;SDS011;32805;53.556;9.944;2023-08-24T00:45:05;10.07;;;6.63;;
17141;SDS011;32805;53.556;9.944;2023-08-24T00:47:33;11.57;;;7.57;;
17141;SDS011;32805;53.556;9.944;2023-08-24T00:50:02;9.93;;;6.75;;
17141;SDS011;32805;53.556;9.944;2023-08-24T00:52:31;13.10;;;6.97;;
17141;SDS011;32805;53.556;9.944;2023-08-24T00:54:58;10.57;;;6.68;;
17141;SDS011;32805;53.556;9.944;2023-08-24T00:57:26;13.15;;;7.07;;
17141;SDS011;32805;53.556;9.944;2023-08-24T00:59:54;10.65;;;7.35;;
17141;SDS011;32805;53.556;9.944;2023-08-24T01:02:22;10.70;;;6.65;;
17141;SDS011;32805;53.556;9.944;2023-08-24T01:04:52;13.73;;;7.05;;
17141;SDS011;32805;53.556;9.944;2023-08-24T01:07:20;14.02;;;7.65;;
17141;SDS011;32805;53.556;9.944;2023-08-24T01:09:48;10.43;;;6.90;;
17141;SDS011;32805;53.556;9.944;2023-08-24T01:12:19;10.93;;;6.78;;
17141;SDS011;32805;53.556;9.944;2023-08-24T01:14:49;16.35;;;6.80;;
17141;SDS011;32805;53.556;9.944;2023-08-24T01:17:18;10.15;;;7.03;;
17141;SDS011;32805;53.556;9.944;2023-08-24T01:19:47;10.98;;;6.75;;
17141;SDS011;32805;53.556;9.944;2023-08-24T01:22:19;11.02;;;7.10;;
17141;SDS011;32805;53.556;9.944;2023-08-24T01:24:51;10.18;;;6.95;;
17141;SDS011;32805;53.556;9.944;2023-08-24T01:27:22;12.75;;;6.88;;
17141;SDS011;32805;53.556;9.944;2023-08-24T01:29:49;10.63;;;7.05;;
17141;SDS011;32805;53.556;9.944;2023-08-24T01:32:18;12.35;;;6.82;;
17141;SDS011;32805;53.556;9.944;2023-08-24T01:34:46;8.63;;;6.78;;
17141;SDS011;32805;53.556;9.944;2023-08-24T01:37:13;9.82;;;7.30;;
17141;SDS011;32805;53.556;9.944;2023-08-24T01:39:42;11.20;;;7.10;;
17141;SDS011;32805;53.556;9.944;2023-08-24T01:42:10;13.10;;;7.47;;
17141;SDS011;32805;53.556;9.944;2023-08-24T01:44:40;11.70;;;8.07;;
17141;SDS011;32805;53.556;9.944;2023-08-24T01:47:11;10.90;;;7.60;;
17141;SDS011;32805;53.556;9.944;2023-08-24T01:49:40;11.88;;;7.25;;
17141;SDS011;32805;53.556;9.944;2023-08-24T01:52:08;13.50;;;6.82;;
17141;SDS011;32805;53.556;9.944;2023-08-24T01:54:36;8.55;;;6.32;;
17141;SDS011;32805;53.556;9.944;2023-08-24T01:57:04;8.57;;;6.38;;
17141;SDS011;32805;53.556;9.944;2023-08-24T01:59:32;9.10;;;6.63;;
17141;SDS011;32805;53.556;9.944;2023-08-24T02:02:01;8.35;;;5.93;;
17141;SDS011;32805;53.556;9.944;2023-08-24T02:04:29;8.65;;;6.03;;
17141;SDS011;32805;53.556;9.944;2023-08-24T02:06:56;8.70;;;5.57;;
17141;SDS011;32805;53.556;9.944;2023-08-24T02:09:24;9.15;;;6.20;;
17141;SDS011;32805;53.556;9.944;2023-08-24T02:11:51;12.10;;;5.90;;
17141;SDS011;32805;53.556;9.944;2023-08-24T02:14:19;10.00;;;6.55;;
17141;SDS011;32805;53.556;9.944;2023-08-24T02:16:46;8.15;;;6.10;;
17141;SDS011;32805;53.556;9.944;2023-08-24T02:19:15;7.60;;;6.50;;
17141;SDS011;32805;53.556;9.944;2023-08-24T02:21:43;8.27;;;6.63;;
17141;SDS011;32805;53.556;9.944;2023-08-24T02:24:10;9.00;;;6.82;;
17141;SDS011;32805;53.556;9.944;2023-08-24T02:26:38;9.88;;;5.72;;
17141;SDS011;32805;53.556;9.944;2023-08-24T02:29:05;11.35;;;5.80;;
17141;SDS011;32805;53.556;9.944;2023-08-24T02:31:33;9.85;;;6.60;;
17141;SDS011;32805;53.556;9.944;2023-08-24T02:34:00;8.35;;;6.40;;
17141;SDS011;32805;53.556;9.944;2023-08-24T02:36:30;9.38;;;6.03;;
17141;SDS011;32805;53.556;9.944;2023-08-24T02:38:59;10.07;;;6.63;;
17141;SDS011;32805;53.556;9.944;2023-08-24T02:41:27;9.38;;;7.22;;
17141;SDS011;32805;53.556;9.944;2023-08-24T02:43:55;9.35;;;6.20;;
17141;SDS011;32805;53.556;9.944;2023-08-24T02:46:23;12.32;;;6.63;;
17141;SDS011;32805;53.556;9.944;2023-08-24T02:48:50;10.55;;;7.50;;
17141;SDS011;32805;53.556;9.944;2023-08-24T02:51:21;11.23;;;7.15;;
17141;SDS011;32805;53.556;9.944;2023-08-24T02:53:50;12.23;;;7.28;;
17141;SDS011;32805;53.556;9.944;2023-08-24T02:56:19;10.02;;;6.55;;
17141;SDS011;32805;53.556;9.944;2023-08-24T02:58:47;8.40;;;6.10;;
17141;SDS011;32805;53.556;9.944;2023-08-24T03:01:14;10.73;;;6.95;;
17141;SDS011;32805;53.556;9.944;2023-08-24T03:03:42;8.88;;;6.38;;
17141;SDS011;32805;53.556;9.944;2023-08-24T03:06:09;11.13;;;6.57;;
17141;SDS011;32805;53.556;9.944;2023-08-24T03:08:37;7.90;;;5.68;;
17141;SDS011;32805;53.556;9.944;2023-08-24T03:11:06;7.68;;;5.95;;
17141;SDS011;32805;53.556;9.944;2023-08-24T03:13:35;10.55;;;6.40;;
17141;SDS011;32805;53.556;9.944;2023-08-24T03:16:03;7.05;;;5.90;;
17141;SDS011;32805;53.556;9.944;2023-08-24T03:18:31;8.52;;;6.55;;
17141;SDS011;32805;53.556;9.944;2023-08-24T03:21:01;11.02;;;6.28;;
17141;SDS011;32805;53.556;9.944;2023-08-24T03:23:31;9.50;;;6.32;;
17141;SDS011;32805;53.556;9.944;2023-08-24T03:25:59;11.60;;;6.65;;
17141;SDS011;32805;53.556;9.944;2023-08-24T03:28:28;11.38;;;7.32;;
17141;SDS011;32805;53.556;9.944;2023-08-24T03:30:56;8.73;;;6.55;;
17141;SDS011;32805;53.556;9.944;2023-08-24T03:33:24;11.57;;;7.75;;
17141;SDS011;32805;53.556;9.944;2023-08-24T03:35:51;12.55;;;7.43;;
17141;SDS011;32805;53.556;9.944;2023-08-24T03:38:19;11.80;;;8.20;;
17141;SDS011;32805;53.556;9.944;2023-08-24T03:40:46;8.80;;;7.00;;
17141;SDS011;32805;53.556;9.944;2023-08-24T03:43:13;15.45;;;8.00;;
17141;SDS011;32805;53.556;9.944;2023-08-24T03:45:42;11.13;;;6.75;;
17141;SDS011;32805;53.556;9.944;2023-08-24T03:48:10;7.93;;;6.47;;
17141;SDS011;32805;53.556;9.944;2023-08-24T03:50:38;12.27;;;6.82;;
17141;SDS011;32805;53.556;9.944;2023-08-24T03:53:05;7.35;;;6.15;;
17141;SDS011;32805;53.556;9.944;2023-08-24T03:55:33;10.30;;;6.45;;
17141;SDS011;32805;53.556;9.944;2023-08-24T03:58:01;10.38;;;6.53;;
17141;SDS011;32805;53.556;9.944;2023-08-24T04:00:28;10.95;;;6.72;;
17141;SDS011;32805;53.556;9.944;2023-08-24T04:02:59;10.73;;;6.55;;
17141;SDS011;32805;53.556;9.944;2023-08-24T04:05:28;9.20;;;6.38;;
17141;SDS011;32805;53.556;9.944;2023-08-24T04:07:56;8.48;;;6.10;;
17141;SDS011;32805;53.556;9.944;2023-08-24T04:10:24;6.82;;;6.10;;
17141;SDS011;32805;53.556;9.944;2023-08-24T04:12:51;8.40;;;7.55;;
17141;SDS011;32805;53.556;9.944;2023-08-24T04:15:19;8.48;;;6.20;;
17141;SDS011;32805;53.556;9.944;2023-08-24T04:17:47;10.90;;;7.00;;
17141;SDS011;32805;53.556;9.944;2023-08-24T04:20:17;11.38;;;7.05;;
17141;SDS011;32805;53.556;9.944;2023-08-24T04:22:45;9.10;;;6.93;;
17141;SDS011;32805;53.556;9.944;2023-08-24T04:25:12;12.77;;;7.55;;
17141;SDS011;32805;53.556;9.944;2023-08-24T04:27:40;10.80;;;8.23;;
17141;SDS011;32805;53.556;9.944;2023-08-24T04:30:08;11.25;;;8.40;;
17141;SDS011;32805;53.556;9.944;2023-08-24T04:32:38;11.32;;;7.95;;
17141;SDS011;32805;53.556;9.944;2023-08-24T04:35:06;10.07;;;8.05;;
17141;SDS011;32805;53.556;9.944;2023-08-24T04:37:35;10.45;;;8.00;;
17141;SDS011;32805;53.556;9.944;2023-08-24T04:40:04;14.38;;;9.13;;
17141;SDS011;32805;53.556;9.944;2023-08-24T04:42:33;10.63;;;8.15;;
17141;SDS011;32805;53.556;9.944;2023-08-24T04:45:01;13.05;;;8.57;;
17141;SDS011;32805;53.556;9.944;2023-08-24T04:47:28;11.55;;;8.02;;
17141;SDS011;32805;53.556;9.944;2023-08-24T04:49:57;10.73;;;7.93;;
17141;SDS011;32805;53.556;9.944;2023-08-24T04:52:24;11.82;;;8.43;;
17141;SDS011;32805;53.556;9.944;2023-08-24T04:54:53;9.63;;;7.57;;
17141;SDS011;32805;53.556;9.944;2023-08-24T04:57:21;12.73;;;7.25;;
17141;SDS011;32805;53.556;9.944;2023-08-24T04:59:50;9.25;;;7.28;;
17141;SDS011;32805;53.556;9.944;2023-08-24T05:02:18;10.82;;;6.60;;
17141;SDS011;32805;53.556;9.944;2023-08-24T05:04:46;10.52;;;6.88;;
17141;SDS011;32805;53.556;9.944;2023-08-24T05:07:15;9.60;;;7.40;;
17141;SDS011;32805;53.556;9.944;2023-08-24T05:09:42;9.77;;;7.07;;
17141;SDS011;32805;53.556;9.944;2023-08-24T05:12:11;9.45;;;6.78;;
17141;SDS011;32805;53.556;9.944;2023-08-24T05:14:38;10.27;;;7.05;;
17141;SDS011;32805;53.556;9.944;2023-08-24T05:17:06;9.27;;;7.15;;
17141;SDS011;32805;53.556;9.944;2023-08-24T05:19:33;11.23;;;6.95;;
17141;SDS011;32805;53.556;9.944;2023-08-24T05:22:01;8.43;;;6.03;;
17141;SDS011;32805;53.556;9.944;2023-08-24T05:24:29;9.35;;;6.30;;
17141;SDS011;32805;53.556;9.944;2023-08-24T05:26:56;8.32;;;6.38;;
17141;SDS011;32805;53.556;9.944;2023-08-24T05:29:25;9.65;;;6.30;;
17141;SDS011;32805;53.556;9.944;2023-08-24T05:31:53;14.43;;;6.32;;
17141;SDS011;32805;53.556;9.944;2023-08-24T05:34:20;8.00;;;5.47;;
17141;SDS011;32805;53.556;9.944;2023-08-24T05:36:48;9.93;;;5.75;;
17141;SDS011;32805;53.556;9.944;2023-08-24T05:39:15;8.63;;;5.93;;
17141;SDS011;32805;53.556;9.944;2023-08-24T05:41:42;10.00;;;5.43;;
17141;SDS011;32805;53.556;9.944;2023-08-24T05:44:10;10.88;;;5.82;;
17141;SDS011;32805;53.556;9.944;2023-08-24T05:46:39;7.45;;;5.28;;
17141;SDS011;32805;53.556;9.944;2023-08-24T05:49:06;7.15;;;5.32;;
17141;SDS011;32805;53.556;9.944;2023-08-24T05:51:34;10.00;;;5.45;;
17141;SDS011;32805;53.556;9.944;2023-08-24T05:54:01;8.90;;;5.20;;
17141;SDS011;32805;53.556;9.944;2023-08-24T05:56:29;6.90;;;5.13;;
17141;SDS011;32805;53.556;9.944;2023-08-24T05:58:57;7.18;;;4.20;;
17141;SDS011;32805;53.556;9.944;2023-08-24T06:01:24;7.53;;;5.18;;
17141;SDS011;32805;53.556;9.944;2023-08-24T06:03:53;5.68;;;4.07;;
17141;SDS011;32805;53.556;9.944;2023-08-24T06:06:21;5.47;;;4.00;;
17141;SDS011;32805;53.556;9.944;2023-08-24T06:08:48;5.75;;;3.83;;
17141;SDS011;32805;53.556;9.944;2023-08-24T06:11:16;5.63;;;3.90;;
17141;SDS011;32805;53.556;9.944;2023-08-24T06:13:43;5.75;;;3.55;;
17141;SDS011;32805;53.556;9.944;2023-08-24T06:16:11;7.60;;;3.78;;
17141;SDS011;32805;53.556;9.944;2023-08-24T06:18:42;7.10;;;3.35;;
17141;SDS011;32805;53.556;9.944;2023-08-24T06:21:15;6.30;;;3.67;;
17141;SDS011;32805;53.556;9.944;2023-08-24T06:23:56;4.00;;;3.13;;
17141;SDS011;32805;53.556;9.944;2023-08-24T06:26:24;7.60;;;3.45;;
17141;SDS011;32805;53.556;9.944;2023-08-24T06:28:53;4.70;;;2.47;;
17141;SDS011;32805;53.556;9.944;2023-08-24T06:31:22;5.22;;;2.88;;
17141;SDS011;32805;53.556;9.944;2023-08-24T06:33:50;4.82;;;2.80;;
17141;SDS011;32805;53.556;9.944;2023-08-24T06:36:19;3.35;;;2.42;;
17141;SDS011;32805;53.556;9.944;2023-08-24T06:38:47;4.20;;;2.50;;
17141;SDS011;32805;53.556;9.944;2023-08-24T06:41:15;3.67;;;2.60;;
17141;SDS011;32805;53.556;9.944;2023-08-24T06:43:43;3.25;;;2.40;;
17141;SDS011;32805;53.556;9.944;2023-08-24T06:46:11;4.85;;;2.50;;
17141;SDS011;32805;53.556;9.944;2023-08-24T06:48:39;5.25;;;3.15;;
17141;SDS011;32805;53.556;9.944;2023-08-24T06:51:08;5.13;;;2.92;;
17141;SDS011;32805;53.556;9.944;2023-08-24T06:53:37;5.30;;;2.50;;
17141;SDS011;32805;53.556;9.944;2023-08-24T06:56:05;5.75;;;2.70;;
17141;SDS011;32805;53.556;9.944;2023-08-24T06:58:33;6.80;;;2.97;;
17141;SDS011;32805;53.556;9.944;2023-08-24T07:01:02;2.30;;;2.08;;
17141;SDS011;32805;53.556;9.944;2023-08-24T07:03:32;6.97;;;3.58;;
17141;SDS011;32805;53.556;9.944;2023-08-24T07:06:00;7.03;;;3.00;;
17141;SDS011;32805;53.556;9.944;2023-08-24T07:08:33;4.70;;;2.53;;
17141;SDS011;32805;53.556;9.944;2023-08-24T07:11:05;6.43;;;2.88;;
17141;SDS011;32805;53.556;9.944;2023-08-24T07:13:33;5.28;;;3.15;;
17141;SDS011;32805;53.556;9.944;2023-08-24T07:16:04;5.80;;;2.90;;
17141;SDS011;32805;53.556;9.944;2023-08-24T07:18:32;6.07;;;3.17;;
17141;SDS011;32805;53.556;9.944;2023-08-24T07:21:00;7.85;;;3.22;;
17141;SDS011;32805;53.556;9.944;2023-08-24T07:23:28;5.18;;;3.35;;
17141;SDS011;32805;53.556;9.944;2023-08-24T07:25:57;6.75;;;3.25;;
17141;SDS011;32805;53.556;9.944;2023-08-24T07:28:27;6.82;;;3.95;;
17141;SDS011;32805;53.556;9.944;2023-08-24T07:30:55;6.63;;;3.58;;
17141;SDS011;32805;53.556;9.944;2023-08-24T07:33:23;6.15;;;3.33;;
17141;SDS011;32805;53.556;9.944;2023-08-24T07:35:57;8.38;;;3.97;;
17141;SDS011;32805;53.556;9.944;2023-08-24T07:38:31;6.40;;;3.83;;
17141;SDS011;32805;53.556;9.944;2023-08-24T07:40:59;6.30;;;3.38;;
17141;SDS011;32805;53.556;9.944;2023-08-24T07:43:28;4.57;;;3.40;;
17141;SDS011;32805;53.556;9.944;2023-08-24T07:45:57;5.57;;;3.15;;
17141;SDS011;32805;53.556;9.944;2023-08-24T07:48:24;5.07;;;2.85;;
17141;SDS011;32805;53.556;9.944;2023-08-24T07:55:12;10.88;;;5.20;;
17141;SDS011;32805;53.556;9.944;2023-08-24T07:57:40;37.13;;;22.38;;
17141;SDS011;32805;53.556;9.944;2023-08-24T08:00:10;10.77;;;6.22;;
17141;SDS011;32805;53.556;9.944;2023-08-24T08:02:39;8.63;;;3.72;;
17141;SDS011;32805;53.556;9.944;2023-08-24T08:05:07;8.88;;;5.28;;
17141;SDS011;32805;53.556;9.944;2023-08-24T08:07:36;11.02;;;5.40;;
17141;SDS011;32805;53.556;9.944;2023-08-24T08:10:04;5.03;;;3.63;;
17141;SDS011;32805;53.556;9.944;2023-08-24T08:12:32;5.70;;;3.88;;
17141;SDS011;32805;53.556;9.944;2023-08-24T08:15:02;7.80;;;3.60;;
17141;SDS011;32805;53.556;9.944;2023-08-24T08:17:31;5.30;;;3.50;;
17141;SDS011;32805;53.556;9.944;2023-08-24T08:19:59;8.00;;;5.10;;
17141;SDS011;32805;53.556;9.944;2023-08-24T08:22:28;7.07;;;4.13;;
17141;SDS011;32805;53.556;9.944;2023-08-24T08:24:56;5.13;;;3.63;;
17141;SDS011;32805;53.556;9.944;2023-08-24T08:27:24;6.57;;;4.53;;
17141;SDS011;32805;53.556;9.944;2023-08-24T08:29:51;10.95;;;3.65;;
17141;SDS011;32805;53.556;9.944;2023-08-24T08:32:19;10.15;;;4.88;;
17141;SDS011;32805;53.556;9.944;2023-08-24T08:34:47;4.13;;;2.78;;
17141;SDS011;32805;53.556;9.944;2023-08-24T08:37:15;6.55;;;4.13;;
17141;SDS011;32805;53.556;9.944;2023-08-24T08:39:42;5.40;;;3.20;;
17141;SDS011;32805;53.556;9.944;2023-08-24T08:42:11;6.15;;;3.05;;
17141;SDS011;32805;53.556;9.944;2023-08-24T08:44:38;5.30;;;3.55;;
17141;SDS011;32805;53.556;9.944;2023-08-24T08:47:06;8.18;;;4.20;;
17141;SDS011;32805;53.556;9.944;2023-08-24T08:49:34;7.47;;;3.22;;
17141;SDS011;32805;53.556;9.944;2023-08-24T08:52:04;6.88;;;3.20;;
17141;SDS011;32805;53.556;9.944;2023-08-24T08:54:32;8.25;;;3.00;;
17141;SDS011;32805;53.556;9.944;2023-08-24T08:57:00;7.00;;;3.28;;
17141;SDS011;32805;53.556;9.944;2023-08-24T08:59:28;5.40;;;3.05;;
17141;SDS011;32805;53.556;9.944;2023-08-24T09:01:56;5.10;;;2.40;;
17141;SDS011;32805;53.556;9.944;2023-08-24T09:04:26;6.32;;;2.92;;
17141;SDS011;32805;53.556;9.944;2023-08-24T09:06:54;6.10;;;3.35;;
17141;SDS011;32805;53.556;9.944;2023-08-24T09:09:24;10.80;;;5.53;;
17141;SDS011;32805;53.556;9.944;2023-08-24T09:11:52;8.80;;;4.45;;
17141;SDS011;32805;53.556;9.944;2023-08-24T09:14:20;9.25;;;5.35;;
17141;SDS011;32805;53.556;9.944;2023-08-24T09:16:47;13.70;;;5.90;;
17141;SDS011;32805;53.556;9.944;2023-08-24T09:19:15;21.58;;;13.57;;
17141;SDS011;32805;53.556;9.944;2023-08-24T09:21:42;7.70;;;4.18;;
17141;SDS011;32805;53.556;9.944;2023-08-24T09:24:10;8.30;;;3.88;;
17141;SDS011;32805;53.556;9.944;2023-08-24T09:26:40;8.75;;;4.47;;
17141;SDS011;32805;53.556;9.944;2023-08-24T09:29:12;4.60;;;2.33;;
17141;SDS011;32805;53.556;9.944;2023-08-24T09:31:40;6.10;;;3.47;;
17141;SDS011;32805;53.556;9.944;2023-08-24T09:34:10;4.93;;;2.75;;
17141;SDS011;32805;53.556;9.944;2023-08-24T09:36:38;3.55;;;2.47;;
17141;SDS011;32805;53.556;9.944;2023-08-24T09:39:05;10.80;;;6.95;;
17141;SDS011;32805;53.556;9.944;2023-08-24T09:41:37;6.88;;;3.42;;
17141;SDS011;32805;53.556;9.944;2023-08-24T09:44:07;5.88;;;3.78;;
17141;SDS011;32805;53.556;9.944;2023-08-24T09:46:35;5.60;;;3.08;;
17141;SDS011;32805;53.556;9.944;2023-08-24T09:49:04;6.75;;;3.15;;
17141;SDS011;32805;53.556;9.944;2023-08-24T09:51:33;6.72;;;2.92;;
17141;SDS011;32805;53.556;9.944;2023-08-24T09:54:01;6.10;;;4.13;;
17141;SDS011;32805;53.556;9.944;2023-08-24T09:56:31;8.02;;;5.95;;
17141;SDS011;32805;53.556;9.944;2023-08-24T09:59:00;5.30;;;3.65;;
17141;SDS011;32805;53.556;9.944;2023-08-24T10:01:29;5.22;;;3.20;;
17141;SDS011;32805;53.556;9.944;2023-08-24T10:03:57;7.50;;;3.30;;
17141;SDS011;32805;53.556;9.944;2023-08-24T10:06:26;9.60;;;6.28;;
17141;SDS011;32805;53.556;9.944;2023-08-24T10:08:58;4.97;;;2.92;;
17141;SDS011;32805;53.556;9.944;2023-08-24T10:11:30;5.55;;;3.47;;
17141;SDS011;32805;53.556;9.944;2023-08-24T10:14:00;5.18;;;3.30;;
17141;SDS011;32805;53.556;9.944;2023-08-24T10:16:34;8.75;;;3.20;;
17141;SDS011;32805;53.556;9.944;2023-08-24T10:19:02;5.65;;;3.35;;
17141;SDS011;32805;53.556;9.944;2023-08-24T10:21:30;6.75;;;2.50;;
17141;SDS011;32805;53.556;9.944;2023-08-24T10:23:58;5.22;;;3.50;;
17141;SDS011;32805;53.556;9.944;2023-08-24T10:26:26;3.65;;;2.97;;
17141;SDS011;32805;53.556;9.944;2023-08-24T10:28:54;5.03;;;3.38;;
17141;SDS011;32805;53.556;9.944;2023-08-24T10:31:22;10.77;;;4.00;;
17141;SDS011;32805;53.556;9.944;2023-08-24T10:33:51;6.28;;;3.08;;
17141;SDS011;32805;53.556;9.944;2023-08-24T10:36:20;5.40;;;2.63;;
17141;SDS011;32805;53.556;9.944;2023-08-24T10:38:48;6.80;;;3.15;;
17141;SDS011;32805;53.556;9.944;2023-08-24T10:41:16;3.90;;;2.67;;
17141;SDS011;32805;53.556;9.944;2023-08-24T10:43:48;8.32;;;3.13;;
17141;SDS011;32805;53.556;9.944;2023-08-24T10:46:15;4.78;;;2.80;;
17141;SDS011;32805;53.556;9.944;2023-08-24T10:48:57;6.50;;;3.33;;
17141;SDS011;32805;53.556;9.944;2023-08-24T10:51:26;4.80;;;3.28;;
17141;SDS011;32805;53.556;9.944;2023-08-24T10:53:57;5.65;;;3.85;;
17141;SDS011;32805;53.556;9.944;2023-08-24T10:56:29;5.88;;;2.53;;
17141;SDS011;32805;53.556;9.944;2023-08-24T11:01:54;4.22;;;3.83;;
17141;SDS011;32805;53.556;9.944;2023-08-24T11:04:23;5.10;;;3.85;;
17141;SDS011;32805;53.556;9.944;2023-08-24T11:06:52;5.97;;;3.28;;
17141;SDS011;32805;53.556;9.944;2023-08-24T11:09:20;5.20;;;3.55;;
17141;SDS011;32805;53.556;9.944;2023-08-24T11:11:55;4.30;;;2.95;;
17141;SDS011;32805;53.556;9.944;2023-08-24T11:14:23;6.32;;;3.05;;
17141;SDS011;32805;53.556;9.944;2023-08-24T11:16:53;5.38;;;3.10;;
17141;SDS011;32805;53.556;9.944;2023-08-24T11:19:21;5.25;;;3.33;;
17141;SDS011;32805;53.556;9.944;2023-08-24T11:21:50;8.68;;;3.70;;
17141;SDS011;32805;53.556;9.944;2023-08-24T11:24:18;5.30;;;3.03;;
17141;SDS011;32805;53.556;9.944;2023-08-24T11:26:47;6.25;;;2.97;;
17141;SDS011;32805;53.556;9.944;2023-08-24T11:29:14;5.10;;;2.92;;
17141;SDS011;32805;53.556;9.944;2023-08-24T11:31:44;5.30;;;3.03;;
17141;SDS011;32805;53.556;9.944;2023-08-24T11:34:14;3.63;;;2.83;;
17141;SDS011;32805;53.556;9.944;2023-08-24T11:36:42;5.82;;;3.50;;
17141;SDS011;32805;53.556;9.944;2023-08-24T11:39:15;4.20;;;3.25;;
17141;SDS011;32805;53.556;9.944;2023-08-24T11:41:44;9.43;;;3.53;;
17141;SDS011;32805;53.556;9.944;2023-08-24T11:44:11;6.55;;;3.00;;
17141;SDS011;32805;53.556;9.944;2023-08-24T11:46:55;5.22;;;3.30;;
17141;SDS011;32805;53.556;9.944;2023-08-24T11:49:23;9.10;;;3.63;;
17141;SDS011;32805;53.556;9.944;2023-08-24T11:51:50;6.90;;;3.33;;
17141;SDS011;32805;53.556;9.944;2023-08-24T11:54:22;6.65;;;2.95;;
17141;SDS011;32805;53.556;9.944;2023-08-24T11:56:51;7.20;;;3.92;;
17141;SDS011;32805;53.556;9.944;2023-08-24T11:59:20;9.88;;;4.20;;
17141;SDS011;32805;53.556;9.944;2023-08-24T12:01:48;5.35;;;3.47;;
17141;SDS011;32805;53.556;9.944;2023-08-24T12:04:15;11.18;;;3.53;;
17141;SDS011;32805;53.556;9.944;2023-08-24T12:06:43;3.88;;;3.10;;
17141;SDS011;32805;53.556;9.944;2023-08-24T12:09:10;5.82;;;3.60;;
17141;SDS011;32805;53.556;9.944;2023-08-24T12:11:39;6.10;;;3.80;;
17141;SDS011;32805;53.556;9.944;2023-08-24T12:14:06;6.40;;;3.60;;
17141;SDS011;32805;53.556;9.944;2023-08-24T12:16:36;6.60;;;3.70;;
17141;SDS011;32805;53.556;9.944;2023-08-24T12:19:06;3.92;;;3.17;;
17141;SDS011;32805;53.556;9.944;2023-08-24T12:21:34;5.78;;;3.67;;
17141;SDS011;32805;53.556;9.944;2023-08-24T12:24:02;5.22;;;3.33;;
17141;SDS011;32805;53.556;9.944;2023-08-24T12:26:32;5.05;;;3.40;;
17141;SDS011;32805;53.556;9.944;2023-08-24T12:29:03;10.43;;;3.63;;
17141;SDS011;32805;53.556;9.944;2023-08-24T12:31:32;5.53;;;3.50;;
17141;SDS011;32805;53.556;9.944;2023-08-24T12:34:00;6.30;;;2.97;;
17141;SDS011;32805;53.556;9.944;2023-08-24T12:36:28;7.05;;;3.28;;
17141;SDS011;32805;53.556;9.944;2023-08-24T12:38:56;4.32;;;3.25;;
17141;SDS011;32805;53.556;9.944;2023-08-24T12:41:24;4.10;;;3.10;;
17141;SDS011;32805;53.556;9.944;2023-08-24T12:43:52;4.30;;;2.90;;
17141;SDS011;32805;53.556;9.944;2023-08-24T12:46:21;5.53;;;3.20;;
17141;SDS011;32805;53.556;9.944;2023-08-24T12:48:48;6.40;;;4.18;;
17141;SDS011;32805;53.556;9.944;2023-08-24T12:51:18;7.03;;;3.47;;
17141;SDS011;32805;53.556;9.944;2023-08-24T12:53:46;3.63;;;3.03;;
17141;SDS011;32805;53.556;9.944;2023-08-24T12:56:14;7.45;;;4.53;;
17141;SDS011;32805;53.556;9.944;2023-08-24T12:58:41;7.97;;;3.72;;
17141;SDS011;32805;53.556;9.944;2023-08-24T13:01:10;13.30;;;4.28;;
17141;SDS011;32805;53.556;9.944;2023-08-24T13:03:39;6.32;;;3.50;;
17141;SDS011;32805;53.556;9.944;2023-08-24T13:06:07;8.30;;;3.42;;
17141;SDS011;32805;53.556;9.944;2023-08-24T13:08:49;5.18;;;3.28;;
17141;SDS011;32805;53.556;9.944;2023-08-24T13:11:16;6.00;;;2.78;;
17141;SDS011;32805;53.556;9.944;2023-08-24T13:13:44;3.20;;;2.80;;
17141;SDS011;32805;53.556;9.944;2023-08-24T13:16:12;4.28;;;2.97;;
17141;SDS011;32805;53.556;9.944;2023-08-24T13:18:41;7.68;;;2.90;;
17141;SDS011;32805;53.556;9.944;2023-08-24T13:21:09;12.00;;;4.70;;
17141;SDS011;32805;53.556;9.944;2023-08-24T13:23:36;4.07;;;2.92;;
17141;SDS011;32805;53.556;9.944;2023-08-24T13:26:04;4.30;;;2.50;;
17141;SDS011;32805;53.556;9.944;2023-08-24T13:28:31;3.58;;;2.45;;
17141;SDS011;32805;53.556;9.944;2023-08-24T13:30:59;5.55;;;2.78;;
17141;SDS011;32805;53.556;9.944;2023-08-24T13:33:26;4.97;;;2.42;;
17141;SDS011;32805;53.556;9.944;2023-08-24T13:35:56;2.92;;;2.40;;
17141;SDS011;32805;53.556;9.944;2023-08-24T13:38:23;3.72;;;2.75;;
17141;SDS011;32805;53.556;9.944;2023-08-24T13:40:50;5.22;;;3.50;;
17141;SDS011;32805;53.556;9.944;2023-08-24T13:43:18;6.18;;;2.70;;
17141;SDS011;32805;53.556;9.944;2023-08-24T13:45:46;2.88;;;2.50;;
17141;SDS011;32805;53.556;9.944;2023-08-24T13:48:14;5.28;;;2.78;;
17141;SDS011;32805;53.556;9.944;2023-08-24T13:50:48;6.65;;;2.40;;
17141;SDS011;32805;53.556;9.944;2023-08-24T13:53:18;4.63;;;2.25;;
17141;SDS011;32805;53.556;9.944;2023-08-24T13:55:45;5.75;;;2.30;;
17141;SDS011;32805;53.556;9.944;2023-08-24T13:58:13;4.45;;;2.33;;
17141;SDS011;32805;53.556;9.944;2023-08-24T14:00:40;5.30;;;2.50;;
17141;SDS011;32805;53.556;9.944;2023-08-24T14:03:08;5.10;;;2.55;;
17141;SDS011;32805;53.556;9.944;2023-08-24T14:05:38;5.30;;;2.72;;
17141;SDS011;32805;53.556;9.944;2023-08-24T14:08:06;3.15;;;2.20;;
17141;SDS011;32805;53.556;9.944;2023-08-24T14:10:35;5.35;;;2.47;;
17141;SDS011;32805;53.556;9.944;2023-08-24T14:13:03;3.63;;;2.33;;
17141;SDS011;32805;53.556;9.944;2023-08-24T14:15:30;3.88;;;2.53;;
17141;SDS011;32805;53.556;9.944;2023-08-24T14:17:58;4.40;;;2.72;;
17141;SDS011;32805;53.556;9.944;2023-08-24T14:20:25;4.07;;;2.42;;
17141;SDS011;32805;53.556;9.944;2023-08-24T14:22:53;2.60;;;2.40;;
17141;SDS011;32805;53.556;9.944;2023-08-24T14:25:21;3.58;;;2.33;;
17141;SDS011;32805;53.556;9.944;2023-08-24T14:27:50;4.05;;;2.40;;
17141;SDS011;32805;53.556;9.944;2023-08-24T14:30:31;3.58;;;2.80;;
17141;SDS011;32805;53.556;9.944;2023-08-24T14:32:58;8.10;;;3.63;;
17141;SDS011;32805;53.556;9.944;2023-08-24T14:35:26;3.03;;;2.72;;
17141;SDS011;32805;53.556;9.944;2023-08-24T14:37:56;3.67;;;2.80;;
17141;SDS011;32805;53.556;9.944;2023-08-24T14:40:24;3.70;;;2.70;;
17141;SDS011;32805;53.556;9.944;2023-08-24T14:42:53;5.30;;;3.15;;
17141;SDS011;32805;53.556;9.944;2023-08-24T14:45:21;3.45;;;2.60;;
17141;SDS011;32805;53.556;9.944;2023-08-24T14:47:49;4.47;;;2.88;;
17141;SDS011;32805;53.556;9.944;2023-08-24T14:50:17;4.28;;;2.90;;
17141;SDS011;32805;53.556;9.944;2023-08-24T14:52:45;5.78;;;2.90;;
17141;SDS011;32805;53.556;9.944;2023-08-24T14:55:12;4.22;;;2.40;;
17141;SDS011;32805;53.556;9.944;2023-08-24T14:57:40;4.43;;;2.63;;